createdAt,value
2018-10-03T00:00:21.296Z,6.20
2018-10-03T00:01:40.154Z,6.30
2018-10-03T00:04:39.249Z,6.10
2018-10-03T00:05:55.139Z,6.10
2018-10-03T00:06:56.984Z,6.20
2018-10-03T00:07:55.155Z,6.40
2018-10-03T00:09:13.590Z,6.50
2018-10-03T00:10:28.857Z,6.40
2018-10-03T00:11:22.214Z,6.00
2018-10-03T00:12:24.063Z,6.00
2018-10-03T00:13:40.669Z,6.40
2018-10-03T00:17:00.657Z,6.00
2018-10-03T00:17:55.848Z,6.10
2018-10-03T00:19:00.573Z,6.80
2018-10-03T00:20:11.843Z,6.10
2018-10-03T00:22:19.848Z,6.50
2018-10-03T00:23:35.011Z,6.00
2018-10-03T00:24:22.835Z,6.60
2018-10-03T00:25:36.471Z,6.20
2018-10-03T00:26:43.437Z,6.60
2018-10-03T00:27:49.438Z,6.60
2018-10-03T00:28:41.199Z,6.80
2018-10-03T00:30:02.617Z,6.90
2018-10-03T00:30:56.269Z,7.00
2018-10-03T00:32:03.036Z,6.70
2018-10-03T00:33:16.872Z,7.20
2018-10-03T00:34:25.893Z,6.70
2018-10-03T00:35:23.443Z,6.80
2018-10-03T00:36:35.331Z,6.50
2018-10-03T00:37:48.139Z,6.70
2018-10-03T00:38:55.215Z,6.60
2018-10-03T00:39:53.029Z,6.60
2018-10-03T00:40:58.100Z,6.70
2018-10-03T00:41:59.031Z,6.90
2018-10-03T00:42:50.132Z,6.90
2018-10-03T00:43:58.433Z,6.70
2018-10-03T00:45:13.702Z,6.90
2018-10-03T00:46:23.751Z,7.10
2018-10-03T00:47:18.946Z,6.40
2018-10-03T00:48:48.246Z,6.70
2018-10-03T00:50:04.533Z,7.10
2018-10-03T00:50:40.890Z,6.90
2018-10-03T00:51:53.801Z,6.90
2018-10-03T00:52:48.289Z,7.10
2018-10-03T00:54:04.888Z,7.00
2018-10-03T00:55:01.413Z,6.70
2018-10-03T00:56:09.302Z,7.20
2018-10-03T00:57:18.938Z,7.10
2018-10-03T00:58:28.574Z,6.70
2018-10-03T01:00:44.259Z,6.90
2018-10-03T01:01:38.224Z,7.10
2018-10-03T01:03:59.237Z,6.90
2018-10-03T01:04:49.210Z,7.00
2018-10-03T01:06:16.359Z,7.10
2018-10-03T01:07:07.463Z,7.20
2018-10-03T01:08:12.584Z,6.70
2018-10-03T01:09:39.013Z,7.30
2018-10-03T01:10:19.155Z,7.20
2018-10-03T01:11:22.446Z,7.40
2018-10-03T01:12:23.272Z,7.20
2018-10-03T01:13:43.456Z,7.20
2018-10-03T01:14:35.886Z,7.50
2018-10-03T01:15:46.338Z,7.60
2018-10-03T01:18:21.177Z,7.80
2018-10-03T01:19:08.892Z,7.50
2018-10-03T01:20:14.227Z,7.40
2018-10-03T01:21:17.207Z,7.60
2018-10-03T01:22:30.835Z,7.80
2018-10-03T01:25:42.633Z,7.60
2018-10-03T01:26:51.451Z,7.90
2018-10-03T01:27:45.629Z,7.80
2018-10-03T01:28:46.764Z,7.50
2018-10-03T01:30:09.499Z,8.00
2018-10-03T01:31:08.589Z,8.00
2018-10-03T01:32:10.746Z,7.60
2018-10-03T01:33:12.805Z,7.60
2018-10-03T01:34:22.341Z,7.70
2018-10-03T01:35:21.937Z,7.80
2018-10-03T01:36:46.626Z,8.30
2018-10-03T01:37:50.016Z,8.30
2018-10-03T01:38:59.444Z,7.90
2018-10-03T01:39:39.378Z,7.90
2018-10-03T01:40:52.290Z,8.00
2018-10-03T01:41:57.419Z,8.40
2018-10-03T01:42:58.553Z,8.50
2018-10-03T01:44:03.270Z,8.80
2018-10-03T01:45:15.977Z,9.00
2018-10-03T01:46:31.961Z,8.20
2018-10-03T01:47:25.212Z,9.20
2018-10-03T01:48:35.972Z,9.00
2018-10-03T01:49:48.063Z,9.50
2018-10-03T01:50:55.037Z,9.00
2018-10-03T01:51:51.872Z,9.50
2018-10-03T01:52:59.768Z,9.00
2018-10-03T01:53:54.964Z,9.20
2018-10-03T01:55:20.985Z,8.70
2018-10-03T01:56:09.934Z,9.60
2018-10-03T01:57:08.100Z,9.20
2018-10-03T01:58:25.933Z,9.30
2018-10-03T01:59:28.804Z,9.30
2018-10-03T02:00:37.926Z,9.80
2018-10-03T02:01:42.038Z,9.90
2018-10-03T02:02:41.934Z,9.20
2018-10-03T02:04:02.526Z,9.50
2018-10-03T02:04:59.462Z,9.70
2018-10-03T02:06:03.976Z,9.70
2018-10-03T02:07:10.436Z,9.10
2018-10-03T02:08:17.221Z,9.60
2018-10-03T02:09:15.781Z,9.70
2018-10-03T02:10:34.734Z,9.40
2018-10-03T02:11:31.775Z,9.60
2018-10-03T02:12:40.386Z,9.80
2018-10-03T02:13:35.175Z,9.90
2018-10-03T02:16:01.308Z,9.70
2018-10-03T02:17:02.038Z,9.90
2018-10-03T02:17:54.568Z,9.90
2018-10-03T02:19:06.866Z,10.10
2018-10-03T02:20:15.067Z,9.90
2018-10-03T02:21:15.176Z,9.90
2018-10-03T02:22:27.777Z,10.00
2018-10-03T02:23:28.094Z,10.30
2018-10-03T02:24:34.348Z,10.10
2018-10-03T02:25:46.852Z,9.90
2018-10-03T02:26:41.126Z,9.80
2018-10-03T02:27:58.855Z,10.10
2018-10-03T02:28:58.245Z,10.50
2018-10-03T02:29:57.127Z,9.80
2018-10-03T02:32:17.526Z,10.10
2018-10-03T02:33:20.502Z,9.80
2018-10-03T02:34:22.559Z,9.50
2018-10-03T02:35:24.512Z,10.20
2018-10-03T02:36:39.888Z,9.60
2018-10-03T02:40:01.515Z,9.30
2018-10-03T02:40:58.349Z,9.00
2018-10-03T02:42:06.444Z,10.30
2018-10-03T02:43:24.885Z,9.60
2018-10-03T02:44:08.509Z,10.00
2018-10-03T02:45:25.211Z,9.60
2018-10-03T02:46:27.984Z,9.90
2018-10-03T02:48:32.301Z,9.90
2018-10-03T02:49:52.383Z,9.90
2018-10-03T02:50:50.447Z,9.40
2018-10-03T02:51:47.801Z,9.20
2018-10-03T02:53:03.882Z,10.20
2018-10-03T02:56:09.133Z,10.40
2018-10-03T02:57:29.721Z,9.90
2018-10-03T02:58:22.460Z,10.20
2018-10-03T02:59:37.830Z,9.40
2018-10-03T03:01:34.937Z,9.70
2018-10-03T03:02:48.816Z,10.00
2018-10-03T03:03:59.982Z,9.80
2018-10-03T03:04:47.604Z,9.30
2018-10-03T03:06:07.169Z,9.60
2018-10-03T03:07:06.667Z,9.60
2018-10-03T03:08:21.025Z,9.90
2018-10-03T03:09:30.441Z,10.00
2018-10-03T03:10:32.601Z,9.30
2018-10-03T03:11:29.544Z,10.20
2018-10-03T03:12:37.329Z,9.90
2018-10-03T03:14:47.385Z,9.80
2018-10-03T03:15:59.377Z,9.20
2018-10-03T03:16:55.086Z,9.60
2018-10-03T03:18:03.088Z,9.50
2018-10-03T03:19:04.329Z,9.90
2018-10-03T03:20:13.854Z,8.80
2018-10-03T03:21:17.557Z,9.40
2018-10-03T03:22:22.439Z,9.30
2018-10-03T03:23:30.165Z,9.60
2018-10-03T03:24:29.043Z,8.80
2018-10-03T03:25:43.389Z,9.40
2018-10-03T03:26:43.396Z,9.40
2018-10-03T03:27:50.775Z,9.50
2018-10-03T03:30:10.043Z,9.80
2018-10-03T03:31:09.848Z,9.30
2018-10-03T03:32:19.998Z,9.30
2018-10-03T03:33:16.931Z,9.10
2018-10-03T03:34:19.708Z,9.90
2018-10-03T03:35:34.049Z,9.80
2018-10-03T03:36:32.626Z,9.80
2018-10-03T03:37:46.571Z,9.00
2018-10-03T03:38:48.730Z,9.10
2018-10-03T03:39:51.912Z,9.10
2018-10-03T03:41:01.234Z,9.10
2018-10-03T03:42:01.772Z,9.60
2018-10-03T03:43:09.135Z,9.50
2018-10-03T03:44:18.475Z,9.10
2018-10-03T03:45:23.296Z,9.30
2018-10-03T03:46:22.270Z,9.70
2018-10-03T03:48:39.183Z,9.00
2018-10-03T03:49:39.300Z,9.00
2018-10-03T03:50:53.234Z,9.50
2018-10-03T03:51:48.122Z,8.80
2018-10-03T03:52:52.225Z,9.50
2018-10-03T03:54:08.004Z,9.70
2018-10-03T03:57:30.149Z,9.70
2018-10-03T03:59:39.178Z,8.80
2018-10-03T04:00:32.019Z,9.00
2018-10-03T04:01:44.007Z,9.10
2018-10-03T04:02:50.261Z,9.90
2018-10-03T04:03:53.139Z,8.90
2018-10-03T04:05:07.996Z,9.60
2018-10-03T04:05:58.694Z,9.00
2018-10-03T04:07:08.729Z,9.30
2018-10-03T04:08:34.650Z,9.10
2018-10-03T04:09:21.650Z,9.30
2018-10-03T04:10:26.064Z,8.90
2018-10-03T04:11:42.662Z,9.70
2018-10-03T04:12:41.961Z,9.30
2018-10-03T04:13:43.291Z,9.70
2018-10-03T04:16:02.252Z,9.20
2018-10-03T04:16:58.780Z,9.30
2018-10-03T04:19:21.739Z,9.40
2018-10-03T04:20:22.265Z,9.40
2018-10-03T04:21:26.260Z,8.90
2018-10-03T04:22:25.248Z,9.10
2018-10-03T04:23:38.054Z,8.80
2018-10-03T04:25:49.846Z,8.60
2018-10-03T04:26:52.212Z,9.60
2018-10-03T04:28:06.869Z,9.70
2018-10-03T04:30:06.679Z,9.40
2018-10-03T04:32:18.783Z,9.10
2018-10-03T04:33:20.327Z,9.30
2018-10-03T04:34:31.192Z,8.70
2018-10-03T04:35:34.829Z,9.20
2018-10-03T04:36:40.836Z,9.30
2018-10-03T04:37:37.978Z,10.40
2018-10-03T04:38:49.152Z,9.00
2018-10-03T04:40:55.626Z,9.30
2018-10-03T04:42:17.523Z,10.00
2018-10-03T04:43:16.223Z,10.00
2018-10-03T04:44:27.597Z,9.20
2018-10-03T04:45:28.426Z,9.70
2018-10-03T04:46:32.427Z,9.60
2018-10-03T04:47:32.540Z,9.60
2018-10-03T04:48:44.633Z,10.10
2018-10-03T04:49:48.530Z,10.40
2018-10-03T04:50:53.457Z,10.10
2018-10-03T04:52:01.554Z,9.90
2018-10-03T04:53:16.207Z,10.30
2018-10-03T04:54:04.540Z,9.90
2018-10-03T04:55:09.669Z,10.30
2018-10-03T04:56:27.087Z,9.10
2018-10-03T05:01:54.066Z,10.10
2018-10-03T05:03:00.432Z,10.00
2018-10-03T05:04:01.972Z,10.60
2018-10-03T05:04:59.932Z,10.40
2018-10-03T05:06:12.126Z,10.20
2018-10-03T05:07:20.028Z,10.10
2018-10-03T05:08:19.108Z,9.70
2018-10-03T05:09:35.500Z,9.90
2018-10-03T05:11:34.188Z,10.40
2018-10-03T05:13:43.322Z,10.10
2018-10-03T05:14:53.974Z,10.50
2018-10-03T05:16:00.749Z,10.30
2018-10-03T05:17:15.912Z,10.90
2018-10-03T05:18:13.462Z,10.20
2018-10-03T05:19:12.448Z,9.60
2018-10-03T05:20:21.263Z,9.70
2018-10-03T05:21:35.414Z,10.10
2018-10-03T05:22:30.905Z,9.90
2018-10-03T05:23:38.284Z,9.80
2018-10-03T05:24:43.413Z,9.40
2018-10-03T05:25:51.612Z,9.70
2018-10-03T05:26:51.416Z,10.40
2018-10-03T05:27:59.375Z,9.90
2018-10-03T05:29:22.256Z,9.90
2018-10-03T05:30:10.693Z,9.80
2018-10-03T05:31:15.208Z,10.50
2018-10-03T05:32:18.187Z,10.00
2018-10-03T05:35:48.218Z,10.40
2018-10-03T05:36:44.546Z,9.90
2018-10-03T05:37:54.075Z,10.60
2018-10-03T05:38:56.437Z,11.10
2018-10-03T05:39:53.067Z,10.20
2018-10-03T05:41:02.440Z,10.40
2018-10-03T05:42:14.179Z,11.20
2018-10-03T05:43:16.234Z,11.40
2018-10-03T05:44:19.724Z,10.60
2018-10-03T05:45:28.948Z,10.30
2018-10-03T05:46:27.011Z,11.40
2018-10-03T05:47:38.897Z,11.20
2018-10-03T05:48:39.762Z,10.70
2018-10-03T05:49:54.892Z,10.90
2018-10-03T05:50:57.665Z,11.40
2018-10-03T05:53:10.690Z,11.40
2018-10-03T05:54:22.288Z,11.00
2018-10-03T05:55:19.620Z,11.80
2018-10-03T05:56:26.691Z,10.70
2018-10-03T05:57:25.880Z,11.40
2018-10-03T05:58:34.595Z,12.10
2018-10-03T05:59:38.904Z,11.60
2018-10-03T06:02:04.220Z,11.80
2018-10-03T06:02:56.812Z,11.60
2018-10-03T06:05:04.549Z,11.90
2018-10-03T06:07:27.300Z,11.40
2018-10-03T06:08:35.297Z,11.60
2018-10-03T06:09:35.615Z,11.50
2018-10-03T06:10:42.277Z,11.70
2018-10-03T06:11:39.418Z,12.70
2018-10-03T06:13:42.815Z,12.00
2018-10-03T06:15:02.385Z,11.90
2018-10-03T06:16:07.103Z,12.50
2018-10-03T06:17:07.217Z,11.80
2018-10-03T06:19:14.709Z,11.20
2018-10-03T06:20:30.594Z,11.30
2018-10-03T06:21:37.873Z,11.60
2018-10-03T06:22:33.886Z,11.00
2018-10-03T06:23:40.561Z,10.90
2018-10-03T06:24:49.675Z,10.80
2018-10-03T06:26:03.000Z,10.80
2018-10-03T06:27:05.364Z,10.70
2018-10-03T06:28:12.859Z,10.50
2018-10-03T06:29:11.010Z,11.20
2018-10-03T06:30:20.442Z,11.00
2018-10-03T06:32:25.579Z,10.90
2018-10-03T06:33:31.436Z,10.00
2018-10-03T06:34:40.034Z,10.40
2018-10-03T06:35:52.128Z,11.00
2018-10-03T06:36:53.265Z,11.00
2018-10-03T06:37:51.837Z,10.00
2018-10-03T06:40:12.694Z,10.40
2018-10-03T06:41:08.245Z,10.00
2018-10-03T06:42:19.214Z,10.10
2018-10-03T06:43:22.910Z,9.80
2018-10-03T06:44:32.348Z,10.20
2018-10-03T06:45:40.048Z,9.70
2018-10-03T06:46:34.203Z,10.70
2018-10-03T06:47:41.175Z,10.20
2018-10-03T06:48:49.889Z,10.30
2018-10-03T06:51:07.829Z,10.00
2018-10-03T06:53:12.350Z,9.20
2018-10-03T06:54:17.176Z,9.80
2018-10-03T06:55:20.055Z,10.20
2018-10-03T06:56:30.710Z,9.50
2018-10-03T06:57:39.119Z,10.10
2018-10-03T06:58:33.799Z,9.60
2018-10-03T06:59:38.214Z,9.20
2018-10-03T07:01:00.546Z,9.20
2018-10-03T07:03:02.095Z,9.90
2018-10-03T07:04:11.535Z,9.20
2018-10-03T07:05:10.000Z,9.30
2018-10-03T07:06:23.632Z,9.50
2018-10-03T07:07:32.446Z,9.40
2018-10-03T07:09:33.280Z,8.70
2018-10-03T07:10:47.728Z,9.10
2018-10-03T07:11:47.429Z,8.50
2018-10-03T07:12:43.353Z,8.80
2018-10-03T07:13:51.345Z,8.90
2018-10-03T07:18:20.358Z,8.90
2018-10-03T07:19:22.619Z,8.40
2018-10-03T07:20:21.197Z,8.30
2018-10-03T07:21:30.112Z,8.50
2018-10-03T07:22:40.463Z,8.30
2018-10-03T07:23:43.442Z,8.70
2018-10-03T07:24:47.445Z,8.40
2018-10-03T07:26:00.091Z,9.00
2018-10-03T07:27:15.941Z,8.10
2018-10-03T07:28:11.334Z,8.30
2018-10-03T07:29:18.009Z,8.10
2018-10-03T07:30:11.148Z,7.40
2018-10-03T07:32:44.158Z,7.80
2018-10-03T07:33:44.765Z,8.00
2018-10-03T07:35:47.249Z,7.30
2018-10-03T07:36:54.624Z,7.50
2018-10-03T07:40:06.531Z,7.10
2018-10-03T07:42:23.863Z,7.20
2018-10-03T07:44:38.004Z,7.30
2018-10-03T07:46:50.821Z,7.10
2018-10-03T07:49:02.516Z,6.90
2018-10-03T07:50:09.796Z,7.20
2018-10-03T07:51:02.786Z,7.20
2018-10-03T07:52:11.654Z,7.00
2018-10-03T07:53:11.865Z,6.90
2018-10-03T07:54:24.879Z,7.20
2018-10-03T07:55:41.482Z,7.10
2018-10-03T07:56:34.826Z,7.40
2018-10-03T07:57:35.037Z,7.10
2018-10-03T08:00:53.089Z,6.90
2018-10-03T08:01:55.452Z,6.90
2018-10-03T08:03:03.381Z,7.20
2018-10-03T08:04:14.410Z,6.80
2018-10-03T08:05:21.490Z,6.30
2018-10-03T08:06:28.149Z,7.10
2018-10-03T08:07:20.786Z,7.20
2018-10-03T08:08:51.110Z,6.70
2018-10-03T08:09:41.095Z,6.60
2018-10-03T08:11:55.229Z,6.80
2018-10-03T08:12:54.417Z,7.40
2018-10-03T08:13:59.238Z,6.40
2018-10-03T08:15:20.651Z,6.60
2018-10-03T08:16:09.397Z,6.70
2018-10-03T08:17:17.841Z,6.80
2018-10-03T08:18:39.113Z,6.30
2018-10-03T08:19:35.640Z,7.00
2018-10-03T08:21:52.043Z,6.90
2018-10-03T08:23:02.401Z,6.50
2018-10-03T08:24:56.273Z,6.50
2018-10-03T08:26:20.035Z,6.40
2018-10-03T08:27:02.533Z,6.10
2018-10-03T08:28:23.021Z,6.20
2018-10-03T08:29:33.379Z,5.80
2018-10-03T08:30:20.693Z,6.00
2018-10-03T08:31:24.893Z,6.20
2018-10-03T08:33:40.987Z,6.00
2018-10-03T08:35:56.373Z,5.80
2018-10-03T08:36:49.934Z,6.00
2018-10-03T08:37:59.764Z,6.60
2018-10-03T08:39:32.132Z,6.40
2018-10-03T08:41:24.062Z,6.20
2018-10-03T08:42:23.048Z,5.50
2018-10-03T08:43:19.579Z,5.40
2018-10-03T08:44:50.521Z,5.10
2018-10-03T08:46:45.214Z,5.50
2018-10-03T08:49:14.919Z,5.70
2018-10-03T08:50:13.394Z,5.20
2018-10-03T08:52:09.844Z,4.60
2018-10-03T08:53:33.797Z,5.40
2018-10-03T08:54:58.286Z,4.90
2018-10-03T08:56:33.935Z,4.90
2018-10-03T08:59:09.687Z,4.70
2018-10-03T09:00:13.077Z,5.10
2018-10-03T09:02:20.677Z,4.90
2018-10-03T09:03:13.209Z,4.50
2018-10-03T09:04:01.950Z,4.20
2018-10-03T09:05:33.147Z,4.00
2018-10-03T09:06:50.609Z,5.40
2018-10-03T09:09:30.870Z,4.80
2018-10-03T09:10:15.724Z,4.20
2018-10-03T09:11:13.173Z,4.20
2018-10-03T09:12:25.236Z,4.50
2018-10-03T09:14:28.393Z,4.30
2018-10-03T09:15:34.715Z,4.00
2018-10-03T09:16:43.328Z,4.20
2018-10-03T09:18:16.409Z,3.90
2018-10-03T09:18:48.668Z,4.60
2018-10-03T09:19:44.681Z,4.20
2018-10-03T09:21:37.655Z,4.60
2018-10-03T09:23:52.605Z,4.40
2018-10-03T09:24:44.524Z,3.90
2018-10-03T09:26:52.738Z,4.10
2018-10-03T09:27:52.539Z,3.80
2018-10-03T09:29:21.630Z,4.20
2018-10-03T09:31:45.405Z,4.20
2018-10-03T09:32:41.526Z,4.10
2018-10-03T09:33:43.273Z,3.90
2018-10-03T09:34:40.514Z,3.80
2018-10-03T09:36:42.590Z,4.30
2018-10-03T09:37:54.781Z,3.80
2018-10-03T09:39:56.534Z,3.90
2018-10-03T09:41:13.941Z,3.80
2018-10-03T09:42:10.993Z,3.70
2018-10-03T09:43:07.104Z,4.30
2018-10-03T09:44:19.303Z,4.30
2018-10-03T09:45:24.223Z,4.00
2018-10-03T09:46:36.215Z,4.40
2018-10-03T09:47:57.318Z,4.20
2018-10-03T09:48:58.046Z,3.80
2018-10-03T09:50:00.516Z,4.80
2018-10-03T09:50:57.549Z,3.90
2018-10-03T09:52:01.865Z,4.20
2018-10-03T09:53:01.568Z,3.90
2018-10-03T09:54:54.309Z,4.20
2018-10-03T09:55:49.299Z,3.80
2018-10-03T09:57:16.043Z,3.90
2018-10-03T09:57:45.331Z,4.10
2018-10-03T09:59:02.434Z,3.90
2018-10-03T10:00:17.446Z,4.50
2018-10-03T10:01:24.467Z,4.00
2018-10-03T10:02:12.292Z,3.50
2018-10-03T10:03:30.631Z,3.90
2018-10-03T10:04:12.724Z,4.20
2018-10-03T10:09:52.286Z,3.50
2018-10-03T10:10:40.928Z,4.20
2018-10-03T10:12:02.244Z,4.00
2018-10-03T10:13:09.312Z,3.70
2018-10-03T10:14:19.164Z,4.00
2018-10-03T10:15:20.187Z,4.10
2018-10-03T10:16:46.310Z,4.00
2018-10-03T10:17:34.133Z,4.40
2018-10-03T10:18:47.248Z,3.90
2018-10-03T10:19:50.536Z,4.20
2018-10-03T10:20:42.491Z,4.10
2018-10-03T10:22:51.585Z,4.40
2018-10-03T10:23:54.266Z,4.00
2018-10-03T10:24:57.133Z,4.30
2018-10-03T10:26:27.248Z,3.60
2018-10-03T10:29:38.231Z,4.60
2018-10-03T10:30:51.246Z,4.30
2018-10-03T10:31:44.714Z,4.00
2018-10-03T10:32:36.155Z,4.00
2018-10-03T10:33:57.111Z,4.00
2018-10-03T10:37:04.103Z,3.70
2018-10-03T10:38:06.262Z,4.10
2018-10-03T10:39:15.384Z,3.70
2018-10-03T10:40:17.047Z,3.90
2018-10-03T10:41:14.280Z,4.00
2018-10-03T10:42:27.187Z,4.10
2018-10-03T10:44:38.162Z,4.00
2018-10-03T10:46:03.882Z,4.40
2018-10-03T10:46:46.218Z,3.50
2018-10-03T10:50:15.714Z,4.40
2018-10-03T10:51:10.370Z,3.80
2018-10-03T10:52:17.239Z,4.20
2018-10-03T10:53:27.285Z,4.30
2018-10-03T10:54:34.462Z,3.80
2018-10-03T10:55:38.259Z,4.30
2018-10-03T10:56:43.602Z,4.30
2018-10-03T10:59:26.213Z,4.50
2018-10-03T11:00:13.521Z,4.20
2018-10-03T11:01:07.703Z,4.50
2018-10-03T11:02:06.068Z,3.80
2018-10-03T11:03:13.959Z,3.80
2018-10-03T11:04:28.614Z,4.50
2018-10-03T11:05:39.988Z,4.10
2018-10-03T11:07:43.387Z,4.00
2018-10-03T11:08:45.544Z,4.20
2018-10-03T11:10:57.031Z,4.00
2018-10-03T11:12:04.411Z,4.10
2018-10-03T11:13:06.057Z,4.10
2018-10-03T11:14:12.115Z,4.20
2018-10-03T11:15:24.025Z,4.00
2018-10-03T11:16:18.167Z,4.40
2018-10-03T11:17:24.011Z,4.30
2018-10-03T11:18:22.984Z,3.90
2018-10-03T11:19:29.974Z,4.20
2018-10-03T11:20:40.017Z,3.90
2018-10-03T11:21:49.029Z,4.00
2018-10-03T11:22:53.039Z,4.00
2018-10-03T11:24:08.150Z,3.70
2018-10-03T11:24:56.115Z,4.10
2018-10-03T11:26:12.327Z,4.00
2018-10-03T11:27:10.068Z,3.40
2018-10-03T11:28:23.988Z,3.70
2018-10-03T11:30:23.000Z,3.60
2018-10-03T11:31:30.992Z,3.70
2018-10-03T11:32:38.479Z,3.80
2018-10-03T11:34:49.044Z,3.50
2018-10-03T11:36:54.996Z,3.60
2018-10-03T11:38:04.984Z,3.60
2018-10-03T11:40:09.256Z,3.60
2018-10-03T11:41:21.353Z,3.40
2018-10-03T11:42:29.144Z,3.50
2018-10-03T11:43:33.452Z,3.80
2018-10-03T11:44:33.683Z,3.70
2018-10-03T11:45:47.503Z,3.40
2018-10-03T11:46:49.978Z,3.90
2018-10-03T11:48:17.113Z,3.70
2018-10-03T11:50:13.807Z,3.60
2018-10-03T11:51:25.751Z,3.60
2018-10-03T11:52:17.997Z,3.10
2018-10-03T11:54:34.271Z,3.80
2018-10-03T11:55:45.336Z,3.70
2018-10-03T11:57:47.211Z,3.30
2018-10-03T11:59:00.420Z,3.40
2018-10-03T12:00:05.547Z,3.30
2018-10-03T12:01:04.231Z,3.60
2018-10-03T12:02:16.114Z,4.00
2018-10-03T12:03:17.230Z,3.70
2018-10-03T12:04:22.277Z,3.50
2018-10-03T12:05:35.495Z,3.80
2018-10-03T12:06:34.255Z,3.50
2018-10-03T12:07:39.710Z,3.30
2018-10-03T12:10:55.716Z,3.90
2018-10-03T12:12:04.015Z,3.30
2018-10-03T12:13:06.687Z,3.40
2018-10-03T12:14:04.647Z,3.30
2018-10-03T12:15:07.833Z,3.20
2018-10-03T12:16:25.353Z,3.40
2018-10-03T12:17:29.868Z,3.60
2018-10-03T12:18:42.064Z,3.50
2018-10-03T12:19:43.608Z,3.50
2018-10-03T12:20:41.271Z,3.70
2018-10-03T12:21:41.885Z,3.20
2018-10-03T12:23:25.527Z,3.20
2018-10-03T12:24:09.759Z,3.50
2018-10-03T12:26:20.222Z,3.30
2018-10-03T12:27:25.452Z,3.50
2018-10-03T12:28:28.946Z,3.60
2018-10-03T12:31:46.278Z,3.50
2018-10-03T12:32:39.530Z,3.30
2018-10-03T12:33:41.904Z,3.20
2018-10-03T12:34:59.930Z,3.40
2018-10-03T12:35:57.473Z,3.20
2018-10-03T12:37:09.567Z,3.20
2018-10-03T12:38:08.349Z,3.50
2018-10-03T12:39:08.983Z,3.40
2018-10-03T12:40:29.466Z,3.00
2018-10-03T12:41:25.066Z,3.50
2018-10-03T12:42:26.614Z,2.90
2018-10-03T12:43:39.827Z,3.10
2018-10-03T12:44:39.632Z,3.20
2018-10-03T12:46:07.493Z,3.40
2018-10-03T12:46:58.697Z,3.10
2018-10-03T12:47:59.535Z,3.30
2018-10-03T12:49:05.884Z,3.00
2018-10-03T12:50:09.071Z,3.10
2018-10-03T12:51:10.816Z,3.20
2018-10-03T12:52:19.123Z,3.40
2018-10-03T12:53:24.968Z,3.10
2018-10-03T12:54:33.825Z,3.00
2018-10-03T12:56:39.332Z,2.70
2018-10-03T12:57:46.715Z,3.00
2018-10-03T12:58:53.789Z,3.10
2018-10-03T13:00:04.144Z,3.40
2018-10-03T13:01:17.895Z,3.10
2018-10-03T13:02:09.180Z,3.20
2018-10-03T13:03:15.749Z,2.80
2018-10-03T13:06:31.127Z,2.70
2018-10-03T13:07:46.194Z,2.90
2018-10-03T13:10:06.077Z,3.10
2018-10-03T13:10:55.737Z,3.20
2018-10-03T13:12:07.939Z,3.00
2018-10-03T13:14:23.620Z,3.20
2018-10-03T13:15:20.553Z,3.00
2018-10-03T13:16:14.732Z,3.40
2018-10-03T13:17:37.072Z,3.20
2018-10-03T13:18:47.616Z,3.30
2018-10-03T13:19:46.293Z,3.00
2018-10-03T13:20:47.018Z,3.20
2018-10-03T13:21:56.347Z,3.10
2018-10-03T13:22:53.078Z,3.10
2018-10-03T13:24:06.194Z,3.10
2018-10-03T13:25:11.733Z,3.00
2018-10-03T13:27:18.102Z,3.30
2018-10-03T13:28:26.820Z,3.30
2018-10-03T13:29:39.114Z,4.50
2018-10-03T13:30:32.707Z,3.30
2018-10-03T13:31:33.720Z,3.20
2018-10-03T13:32:49.688Z,3.20
2018-10-03T13:33:52.164Z,3.30
2018-10-03T13:35:11.617Z,3.30
2018-10-03T13:35:56.370Z,3.10
2018-10-03T13:37:08.975Z,3.20
2018-10-03T13:38:13.079Z,3.20
2018-10-03T13:39:16.978Z,3.30
2018-10-03T13:40:28.762Z,3.30
2018-10-03T13:41:34.172Z,2.80
2018-10-03T13:43:46.199Z,3.30
2018-10-03T13:44:54.299Z,3.50
2018-10-03T13:45:54.405Z,3.20
2018-10-03T13:46:59.446Z,3.10
2018-10-03T13:48:04.476Z,3.50
2018-10-03T13:49:08.460Z,3.50
2018-10-03T13:50:21.486Z,3.20
2018-10-03T13:51:24.042Z,3.40
2018-10-03T13:52:23.640Z,3.70
2018-10-03T13:53:32.045Z,3.80
2018-10-03T13:55:32.581Z,3.00
2018-10-03T13:56:41.190Z,3.50
2018-10-03T13:57:50.208Z,3.30
2018-10-03T13:59:08.952Z,3.70
2018-10-03T14:00:01.393Z,2.70
2018-10-03T14:02:14.611Z,3.00
2018-10-03T14:03:23.733Z,3.10
2018-10-03T14:04:39.007Z,3.20
2018-10-03T14:05:41.476Z,2.90
2018-10-03T14:06:45.776Z,3.10
2018-10-03T14:07:48.344Z,2.70
2018-10-03T14:08:51.734Z,3.20
2018-10-03T14:10:03.827Z,3.10
2018-10-03T14:11:03.445Z,3.00
2018-10-03T14:13:15.016Z,3.10
2018-10-03T14:14:13.796Z,3.40
2018-10-03T14:16:25.794Z,3.10
2018-10-03T14:17:35.330Z,3.00
2018-10-03T14:18:29.234Z,2.90
2018-10-03T14:19:42.721Z,3.40
2018-10-03T14:21:55.744Z,3.30
2018-10-03T14:23:02.517Z,3.00
2018-10-03T14:24:05.723Z,3.40
2018-10-03T14:25:15.944Z,3.20
2018-10-03T14:26:31.312Z,3.20
2018-10-03T14:27:31.320Z,3.30
2018-10-03T14:28:30.920Z,3.30
2018-10-03T14:29:37.992Z,3.40
2018-10-03T14:31:40.985Z,3.00
2018-10-03T14:32:46.659Z,3.00
2018-10-03T14:33:56.257Z,3.30
2018-10-03T14:34:59.748Z,3.40
2018-10-03T14:37:22.085Z,3.00
2018-10-03T14:38:20.673Z,3.50
2018-10-03T14:39:27.737Z,3.20
2018-10-03T14:40:22.523Z,2.90
2018-10-03T14:41:32.774Z,2.90
2018-10-03T14:43:49.698Z,3.00
2018-10-03T14:46:04.350Z,3.30
2018-10-03T14:47:00.675Z,3.60
2018-10-03T14:47:59.769Z,4.00
2018-10-03T14:49:20.969Z,3.30
2018-10-03T14:50:18.132Z,3.40
2018-10-03T14:51:20.166Z,2.90
2018-10-03T14:52:27.484Z,3.30
2018-10-03T14:53:44.864Z,3.20
2018-10-03T14:54:38.631Z,3.50
2018-10-03T14:55:49.704Z,3.30
2018-10-03T14:56:54.835Z,3.50
2018-10-03T14:57:50.431Z,2.80
2018-10-03T14:59:11.133Z,2.80
2018-10-03T15:00:10.740Z,3.20
2018-10-03T15:01:13.501Z,3.30
2018-10-03T15:02:18.934Z,2.90
2018-10-03T15:03:21.095Z,3.10
2018-10-03T15:04:27.761Z,3.10
2018-10-03T15:05:38.419Z,3.30
2018-10-03T15:07:45.912Z,3.20
2018-10-03T15:08:47.355Z,3.30
2018-10-03T15:09:50.028Z,3.30
2018-10-03T15:10:56.484Z,3.80
2018-10-03T15:12:11.853Z,3.20
2018-10-03T15:13:23.231Z,3.20
2018-10-03T15:14:23.956Z,3.70
2018-10-03T15:15:34.921Z,3.40
2018-10-03T15:16:32.993Z,3.50
2018-10-03T15:18:37.406Z,3.10
2018-10-03T15:19:46.937Z,3.70
2018-10-03T15:21:00.771Z,3.40
2018-10-03T15:22:02.214Z,3.50
2018-10-03T15:23:00.901Z,2.80
2018-10-03T15:24:09.974Z,3.10
2018-10-03T15:25:17.905Z,2.80
2018-10-03T15:26:24.877Z,3.30
2018-10-03T15:27:24.990Z,3.20
2018-10-03T15:28:29.503Z,3.40
2018-10-03T15:29:42.161Z,3.30
2018-10-03T15:30:39.250Z,3.10
2018-10-03T15:31:43.254Z,3.00
2018-10-03T15:34:00.993Z,3.00
2018-10-03T15:36:19.025Z,3.60
2018-10-03T15:37:15.964Z,3.40
2018-10-03T15:38:24.063Z,3.30
2018-10-03T15:39:32.468Z,3.40
2018-10-03T15:41:29.430Z,3.50
2018-10-03T15:42:44.993Z,3.20
2018-10-03T15:43:44.073Z,3.20
2018-10-03T15:44:58.524Z,3.70
2018-10-03T15:45:58.742Z,3.40
2018-10-03T15:47:05.019Z,3.20
2018-10-03T15:48:16.130Z,3.20
2018-10-03T15:49:26.107Z,3.50
2018-10-03T15:51:32.059Z,3.40
2018-10-03T15:52:39.444Z,3.30
2018-10-03T15:53:30.132Z,3.40
2018-10-03T15:54:47.599Z,3.20
2018-10-03T15:55:58.108Z,3.40
2018-10-03T15:57:04.259Z,3.40
2018-10-03T15:58:54.650Z,3.70
2018-10-03T16:00:14.216Z,3.30
2018-10-03T16:02:21.510Z,3.60
2018-10-03T16:03:26.735Z,3.40
2018-10-03T16:04:30.638Z,3.40
2018-10-03T16:05:36.790Z,3.90
2018-10-03T16:06:37.309Z,3.50
2018-10-03T16:08:06.614Z,3.60
2018-10-03T16:08:57.295Z,3.50
2018-10-03T16:09:55.361Z,3.40
2018-10-03T16:11:08.273Z,3.70
2018-10-03T16:13:21.507Z,3.40
2018-10-03T16:15:26.327Z,3.40
2018-10-03T16:16:40.791Z,3.40
2018-10-03T16:17:40.580Z,3.60
2018-10-03T16:18:53.288Z,3.20
2018-10-03T16:19:55.243Z,3.50
2018-10-03T16:20:50.751Z,3.80
2018-10-03T16:23:18.408Z,3.30
2018-10-03T16:25:12.385Z,3.40
2018-10-03T16:26:19.425Z,3.40
2018-10-03T16:27:28.481Z,3.80
2018-10-03T16:28:40.472Z,3.80
2018-10-03T16:29:34.438Z,3.40
2018-10-03T16:30:45.406Z,3.40
2018-10-03T16:31:43.062Z,3.70
2018-10-03T16:34:00.386Z,4.00
2018-10-03T16:36:09.411Z,3.70
2018-10-03T16:37:23.459Z,3.30
2018-10-03T16:38:31.586Z,3.60
2018-10-03T16:39:29.612Z,3.60
2018-10-03T16:40:39.655Z,3.70
2018-10-03T16:42:44.697Z,3.30
2018-10-03T16:43:53.611Z,3.60
2018-10-03T16:45:01.502Z,3.60
2018-10-03T16:45:59.669Z,4.00
2018-10-03T16:47:12.475Z,3.30
2018-10-03T16:48:24.575Z,3.40
2018-10-03T16:49:29.314Z,3.30
2018-10-03T16:50:47.658Z,3.60
2018-10-03T16:51:39.249Z,3.60
2018-10-03T16:52:36.886Z,3.20
2018-10-03T16:53:41.421Z,3.50
2018-10-03T16:55:01.297Z,3.80
2018-10-03T16:56:56.815Z,3.70
2018-10-03T16:59:08.383Z,3.40
2018-10-03T17:00:08.945Z,3.50
2018-10-03T17:01:32.866Z,3.90
2018-10-03T17:02:26.116Z,3.80
2018-10-03T17:04:00.030Z,3.60
2018-10-03T17:04:42.521Z,3.90